Time;durP1;ratioP1;P1;durP2;ratioP2;P2;SDS_P1;SDS_P2;PMS_P1;PMS_P2;Temp;Humidity;BMP_temperature;BMP_pressure;BME280_temperature;BME280_humidity;BME280_pressure;Samples;Min_cycle;Max_cycle;Signal;HPM_P1;HPM_P2
2022/12/29 00:00:05;;;;;;;8.47;4.60;;;;;;;2.77;100.00;93657.75;4989346;28;21846;-65
2022/12/29 00:02:32;;;;;;;6.38;3.40;;;;;;;2.91;100.00;93655.19;4990681;28;20116;-65
2022/12/29 00:04:58;;;;;;;7.07;3.60;;;;;;;2.98;100.00;93646.38;4990036;28;20044;-65
2022/12/29 00:07:25;;;;;;;11.40;5.80;;;;;;;3.06;100.00;93642.56;4993961;28;20096;-64
2022/12/29 00:09:52;;;;;;;7.22;3.70;;;;;;;3.11;100.00;93639.50;4994069;28;20474;-64
2022/12/29 00:12:19;;;;;;;8.17;2.80;;;;;;;3.05;100.00;93635.56;4994261;28;20041;-65
2022/12/29 00:17:30;;;;;;;6.45;3.20;;;;;;;2.98;100.00;93632.81;4993479;28;20038;-65
2022/12/29 00:36:30;;;;;;;6.45;2.60;;;;;;;3.37;100.00;93608.69;4993842;28;20038;-65
2022/12/29 00:44:33;;;;;;;5.20;2.72;;;;;;;3.37;100.00;93603.28;4993787;28;20046;-65
2022/12/29 00:47:02;;;;;;;6.10;2.72;;;;;;;3.52;100.00;93601.44;4993139;28;20415;-65
2022/12/29 00:49:30;;;;;;;4.38;2.75;;;;;;;3.71;100.00;93603.09;4993379;28;20038;-65
2022/12/29 00:52:06;;;;;;;5.37;2.07;;;;;;;3.96;98.75;93595.09;4993199;28;20140;-65
2022/12/29 00:54:35;;;;;;;4.45;2.10;;;;;;;4.23;95.99;93594.03;4993471;28;20035;-65
2022/12/29 00:57:02;;;;;;;4.78;2.10;;;;;;;4.43;94.52;93586.31;4993220;28;20402;-63
2022/12/29 00:59:29;;;;;;;5.28;2.15;;;;;;;4.60;92.49;93596.44;4993537;28;20054;-63
2022/12/29 01:01:56;;;;;;;4.75;1.80;;;;;;;4.74;90.93;93588.31;4991556;28;20054;-63
2022/12/29 01:04:25;;;;;;;4.83;1.80;;;;;;;4.92;89.34;93606.59;4993280;28;20042;-63
2022/12/29 01:06:52;;;;;;;3.50;1.50;;;;;;;5.09;88.13;93591.44;4992895;28;20058;-63
2022/12/29 01:12:06;;;;;;;5.97;2.08;;;;;;;5.15;87.02;93581.75;4992166;28;20646;-64
2022/12/29 01:14:33;;;;;;;4.70;2.05;;;;;;;5.22;86.25;93586.41;4993163;28;20046;-64
2022/12/29 01:17:00;;;;;;;6.03;2.10;;;;;;;5.34;85.59;93572.41;4992542;28;20046;-64
2022/12/29 01:19:27;;;;;;;5.22;2.15;;;;;;;5.32;85.40;93577.47;4992737;28;20046;-64
2022/12/29 01:21:54;;;;;;;3.03;1.40;;;;;;;5.46;84.55;93568.50;4992632;28;20048;-64
2022/12/29 01:24:21;;;;;;;3.55;1.98;;;;;;;5.59;82.99;93570.44;4992773;28;20113;-64
2022/12/29 01:26:48;;;;;;;3.95;1.80;;;;;;;5.49;84.27;93565.75;4992629;28;20054;-64
2022/12/29 01:29:15;;;;;;;3.80;1.73;;;;;;;5.63;82.64;93561.47;4992601;28;20045;-64
2022/12/29 01:31:42;;;;;;;4.72;1.90;;;;;;;5.75;81.61;93570.00;4992312;28;20050;-65
2022/12/29 01:34:09;;;;;;;5.40;2.10;;;;;;;5.89;80.42;93562.97;5007412;28;20049;-65
2022/12/29 01:36:36;;;;;;;3.78;1.75;;;;;;;5.87;80.34;93568.78;4992886;28;20038;-66
2022/12/29 01:39:03;;;;;;;7.50;3.13;;;;;;;5.77;80.71;93564.16;4991812;28;20474;-66
2022/12/29 01:41:30;;;;;;;3.60;1.43;;;;;;;5.99;79.52;93575.78;4992587;28;20046;-65
2022/12/29 01:44:00;;;;;;;3.72;1.77;;;;;;;6.01;78.61;93568.00;4992585;28;20398;-64
2022/12/29 01:46:32;;;;;;;6.03;1.60;;;;;;;6.11;77.88;93572.63;4992345;28;20058;-64
2022/12/29 01:49:13;;;;;;;5.63;1.95;;;;;;;6.06;78.35;93578.50;4992280;28;20068;-64
2022/12/29 01:52:04;;;;;;;3.53;1.63;;;;;;;6.10;78.24;93576.53;4981222;28;20610;-64
2022/12/29 01:54:43;;;;;;;3.60;1.87;;;;;;;6.19;77.14;93579.59;4991003;28;20042;-65
2022/12/29 01:57:13;;;;;;;4.05;1.73;;;;;;;6.18;77.06;93583.50;4989690;28;21719;-64
2022/12/29 01:59:48;;;;;;;5.60;1.85;;;;;;;6.20;77.09;93585.84;4991793;28;20034;-64
2022/12/29 02:02:15;;;;;;;4.93;2.10;;;;;;;6.15;76.69;93573.38;4991867;28;20050;-65
2022/12/29 02:04:44;;;;;;;3.92;1.92;;;;;;;6.33;75.38;93578.75;4991837;28;20049;-64
2022/12/29 02:07:18;;;;;;;3.40;1.50;;;;;;;6.38;74.73;93583.81;4992001;28;20042;-64
2022/12/29 02:09:49;;;;;;;4.68;1.60;;;;;;;6.33;75.44;93575.28;4991997;28;20054;-64
2022/12/29 02:12:21;;;;;;;4.38;1.55;;;;;;;6.33;75.63;93576.03;4991845;28;20053;-65
2022/12/29 02:14:50;;;;;;;5.45;2.03;;;;;;;6.34;75.28;93582.28;4990596;28;20050;-64
2022/12/29 02:17:34;;;;;;;4.35;1.50;;;;;;;6.31;75.02;93578.38;4984483;28;20069;-64
2022/12/29 02:20:27;;;;;;;3.93;1.50;;;;;;;6.38;74.30;93564.75;4987780;28;20038;-65
2022/12/29 02:23:22;;;;;;;5.43;1.75;;;;;;;6.36;74.08;93567.09;5000138;28;20046;-64
2022/12/29 02:26:10;;;;;;;4.53;1.50;;;;;;;6.43;73.64;93576.41;4991305;28;20613;-66
2022/12/29 02:29:14;;;;;;;3.67;1.70;;;;;;;6.50;72.64;93565.44;4991027;28;20336;-64
2022/12/29 02:31:55;;;;;;;5.05;2.10;;;;;;;6.31;74.31;93569.44;4990171;28;20213;-65
2022/12/29 02:34:31;;;;;;;4.00;1.70;;;;;;;6.27;74.45;93571.41;5006504;28;20042;-64
2022/12/29 02:37:18;;;;;;;3.97;1.95;;;;;;;6.28;74.15;93564.78;4991209;28;20095;-64
2022/12/29 02:40:00;;;;;;;3.78;1.40;;;;;;;6.11;75.10;93567.19;4991455;28;20046;-64
2022/12/29 02:42:43;;;;;;;4.10;1.65;;;;;;;5.93;76.60;93559.03;4991497;28;20056;-64
2022/12/29 02:45:26;;;;;;;5.80;2.20;;;;;;;5.86;77.19;93555.59;4978207;28;21781;-64
2022/12/29 02:48:18;;;;;;;5.87;2.13;;;;;;;5.74;77.21;93546.66;4991114;28;20469;-64
2022/12/29 02:50:57;;;;;;;4.55;1.75;;;;;;;5.79;77.03;93540.03;4990839;28;20046;-64
2022/12/29 02:56:15;;;;;;;3.15;1.40;;;;;;;6.03;76.00;93545.81;4990476;28;21605;-64
2022/12/29 02:58:44;;;;;;;5.50;1.70;;;;;;;5.90;76.89;93543.50;5001413;28;20446;-64
2022/12/29 03:01:19;;;;;;;3.27;1.50;;;;;;;6.13;76.39;93550.44;5005573;28;20043;-64
2022/12/29 03:03:58;;;;;;;4.78;1.60;;;;;;;6.18;75.79;93547.31;4999538;28;20038;-64
2022/12/29 03:06:31;;;;;;;2.92;1.50;;;;;;;6.31;74.64;93545.69;4993249;28;20125;-64
2022/12/29 03:09:34;;;;;;;2.75;1.35;;;;;;;6.29;75.32;93544.53;5005685;28;20077;-64
2022/12/29 03:12:19;;;;;;;4.50;1.70;;;;;;;6.17;76.30;93543.03;4990718;28;20052;-64
2022/12/29 03:17:39;;;;;;;3.00;1.35;;;;;;;6.31;75.16;93555.81;4990682;28;20107;-64
2022/12/29 03:20:10;;;;;;;4.25;1.30;;;;;;;6.27;75.39;93553.09;4990135;28;20391;-64
2022/12/29 03:22:41;;;;;;;6.10;1.65;;;;;;;6.30;75.47;93549.59;4990884;28;20096;-64
2022/12/29 03:25:40;;;;;;;3.90;1.60;;;;;;;6.48;74.31;93556.88;4989793;28;21679;-64
2022/12/29 03:28:12;;;;;;;3.33;1.60;;;;;;;6.68;73.72;93555.22;4977967;28;20065;-64
2022/12/29 03:30:40;;;;;;;2.50;1.10;;;;;;;6.65;73.76;93552.53;4990229;28;20052;-64
2022/12/29 03:33:11;;;;;;;4.97;1.67;;;;;;;6.80;72.68;93554.75;4990822;28;20052;-64
2022/12/29 03:35:42;;;;;;;4.30;1.40;;;;;;;6.86;72.19;93557.84;4990385;28;20047;-63
2022/12/29 03:38:39;;;;;;;3.63;1.92;;;;;;;6.72;72.46;93555.19;4990570;28;20038;-64
2022/12/29 03:41:10;;;;;;;4.43;1.83;;;;;;;6.64;72.76;93562.66;4989743;28;20636;-64
2022/12/29 03:43:37;;;;;;;3.42;1.52;;;;;;;6.58;73.39;93559.56;4990596;28;20034;-64
2022/12/29 03:46:04;;;;;;;4.10;1.75;;;;;;;6.67;72.40;93564.56;4989638;28;21022;-64
2022/12/29 03:48:32;;;;;;;3.97;1.70;;;;;;;6.60;73.24;93570.84;4990452;28;20048;-64
2022/12/29 03:51:00;;;;;;;4.15;1.45;;;;;;;6.52;74.00;93558.44;4990058;28;20047;-64
2022/12/29 03:53:26;;;;;;;3.03;1.70;;;;;;;6.44;74.59;93565.09;4990321;28;20470;-64
2022/12/29 03:55:53;;;;;;;5.78;2.13;;;;;;;6.34;74.40;93552.31;4990039;28;20057;-64
2022/12/29 03:58:20;;;;;;;3.08;1.50;;;;;;;6.33;74.85;93543.34;4989947;28;20490;-64
2022/12/29 04:00:47;;;;;;;4.85;1.80;;;;;;;6.20;75.49;93536.81;4989805;28;20054;-64
2022/12/29 04:03:13;;;;;;;8.10;2.15;;;;;;;6.08;76.25;93534.53;4990076;28;20050;-64
2022/12/29 04:05:40;;;;;;;4.77;2.07;;;;;;;5.97;76.84;93546.22;4990216;28;20738;-63
2022/12/29 04:08:07;;;;;;;4.38;1.80;;;;;;;5.86;77.45;93539.25;5003162;28;20149;-64
2022/12/29 04:10:34;;;;;;;4.47;1.70;;;;;;;5.83;77.82;93538.06;4990215;28;20068;-64
2022/12/29 04:13:00;;;;;;;3.88;1.52;;;;;;;5.88;77.55;93534.19;4989727;28;20046;-64
2022/12/29 04:15:27;;;;;;;3.47;1.70;;;;;;;5.86;77.71;93526.41;5005169;28;20049;-64
2022/12/29 04:17:54;;;;;;;4.17;1.80;;;;;;;5.99;77.77;93522.09;4989843;28;20483;-64
2022/12/29 04:23:06;;;;;;;4.43;2.08;;;;;;;5.90;77.98;93524.44;4989529;28;20429;-64
2022/12/29 04:25:33;;;;;;;4.07;1.70;;;;;;;5.79;78.64;93510.88;5004949;28;20293;-64
2022/12/29 04:28:00;;;;;;;5.30;1.80;;;;;;;5.72;79.33;93516.34;4989728;28;20050;-64
2022/12/29 04:30:27;;;;;;;4.27;1.60;;;;;;;5.68;80.03;93512.09;4989929;28;20053;-64
2022/12/29 04:32:54;;;;;;;3.05;1.60;;;;;;;5.85;78.95;93516.66;4989630;28;20049;-64
2022/12/29 04:35:21;;;;;;;5.82;2.17;;;;;;;5.98;78.47;93527.94;4990032;28;20411;-64
2022/12/29 04:37:47;;;;;;;8.93;2.70;;;;;;;5.83;78.95;93540.03;4989566;28;20050;-64
2022/12/29 04:40:14;;;;;;;5.70;2.17;;;;;;;5.84;79.19;93533.44;4990095;28;20486;-64
2022/12/29 04:42:41;;;;;;;4.50;1.67;;;;;;;5.78;79.36;93546.66;5004591;28;20121;-64
2022/12/29 04:45:08;;;;;;;7.03;1.92;;;;;;;5.84;79.28;93536.16;4990300;28;20038;-64
2022/12/29 04:47:34;;;;;;;4.00;1.67;;;;;;;5.90;78.92;93548.94;4989896;28;20080;-64
2022/12/29 04:50:01;;;;;;;5.45;2.00;;;;;;;5.92;79.35;93551.28;4976887;28;20052;-64
2022/12/29 04:52:28;;;;;;;5.50;1.80;;;;;;;5.95;79.03;93551.28;4991352;28;20042;-64
2022/12/29 04:54:55;;;;;;;3.70;1.80;;;;;;;5.88;79.36;93554.03;4992986;28;20406;-64
2022/12/29 04:57:21;;;;;;;5.00;1.60;;;;;;;5.78;80.45;93561.06;4993502;28;20046;-64
2022/12/29 04:59:48;;;;;;;6.22;2.97;;;;;;;5.63;81.32;93561.47;4993009;28;20518;-64
2022/12/29 05:02:15;;;;;;;7.88;4.78;;;;;;;5.43;82.91;93559.16;4992016;28;20050;-64
2022/12/29 05:04:44;;;;;;;6.97;2.90;;;;;;;5.33;83.35;93565.41;4992963;28;20436;-63
2022/12/29 05:07:10;;;;;;;5.87;2.80;;;;;;;5.25;84.35;93558.41;5008296;28;20103;-64
2022/12/29 05:09:37;;;;;;;8.18;2.65;;;;;;;5.16;85.33;93577.88;4992912;28;20046;-64
2022/12/29 05:12:04;;;;;;;5.65;2.00;;;;;;;5.11;85.27;93570.88;4992479;28;20678;-64
2022/12/29 05:14:31;;;;;;;5.03;2.03;;;;;;;5.11;85.12;93576.31;4993035;28;20034;-64
2022/12/29 05:16:58;;;;;;;4.95;2.38;;;;;;;5.16;85.22;93586.03;4992712;28;20077;-64
2022/12/29 05:19:25;;;;;;;5.70;2.33;;;;;;;5.18;85.55;93592.63;4992735;28;20045;-64
2022/12/29 05:21:52;;;;;;;4.75;2.10;;;;;;;5.57;83.69;93585.59;4992561;28;20104;-64
2022/12/29 05:24:19;;;;;;;3.90;1.80;;;;;;;5.92;81.13;93598.34;4992814;28;20042;-64
2022/12/29 05:26:45;;;;;;;10.15;4.40;;;;;;;6.18;80.56;93601.81;4992600;28;20034;-63
2022/12/29 05:29:12;;;;;;;12.52;5.28;;;;;;;6.40;79.09;93589.66;5007786;28;20053;-64
2022/12/29 05:31:38;;;;;;;31.33;13.13;;;;;;;6.37;79.19;93592.38;4992277;28;20384;-64
2022/12/29 05:34:05;;;;;;;21.13;7.60;;;;;;;6.23;80.25;93578.81;4992663;28;20103;-64
2022/12/29 05:36:33;;;;;;;23.65;7.70;;;;;;;6.16;80.96;93582.38;4992704;28;20042;-64
2022/12/29 05:39:03;;;;;;;22.73;8.50;;;;;;;6.19;81.03;93585.06;4991828;28;20863;-65
2022/12/29 05:41:30;;;;;;;5.47;2.20;;;;;;;6.23;80.74;93582.31;4992224;28;20053;-64
2022/12/29 05:43:57;;;;;;;4.67;1.93;;;;;;;6.12;81.09;93573.44;4991996;28;20058;-63
2022/12/29 05:46:23;;;;;;;5.90;1.90;;;;;;;6.20;80.50;93580.41;4992120;28;20072;-64
2022/12/29 05:48:50;;;;;;;16.10;7.05;;;;;;;6.15;81.01;93565.22;4992076;28;20050;-64
2022/12/29 05:51:17;;;;;;;5.85;3.00;;;;;;;6.10;81.54;93567.59;4992425;28;20088;-64
2022/12/29 05:53:43;;;;;;;4.95;2.00;;;;;;;6.03;81.55;93562.94;4991658;28;20057;-65
2022/12/29 05:56:10;;;;;;;7.10;3.43;;;;;;;5.99;81.90;93562.19;4986223;28;20545;-64
2022/12/29 05:58:37;;;;;;;5.78;2.45;;;;;;;6.00;82.66;93558.28;4991896;28;20053;-64
2022/12/29 06:01:04;;;;;;;4.93;2.05;;;;;;;6.09;82.48;93549.69;4989298;28;20613;-64
2022/12/29 06:03:30;;;;;;;4.80;2.15;;;;;;;6.24;81.52;93558.56;4986083;28;20073;-64
2022/12/29 06:05:57;;;;;;;4.78;2.00;;;;;;;6.39;81.33;93558.09;4991490;28;20046;-64
2022/12/29 06:08:24;;;;;;;11.37;6.57;;;;;;;6.36;81.60;93558.91;4990864;28;20042;-64
2022/12/29 06:10:50;;;;;;;6.03;2.50;;;;;;;6.17;82.98;93559.38;4991518;28;20054;-64
2022/12/29 06:13:17;;;;;;;15.32;9.27;;;;;;;6.19;82.97;93565.97;4992288;28;20419;-64
2022/12/29 06:15:44;;;;;;;12.63;7.05;;;;;;;6.25;82.56;93569.06;4991467;28;20408;-64
2022/12/29 06:18:10;;;;;;;7.30;2.10;;;;;;;6.25;nan;93571.78;4991879;28;20395;-64
2022/12/29 06:20:45;;;;;;;5.17;2.80;;;;;;;6.32;83.27;93560.09;5005172;28;20052;-64
2022/12/29 06:23:13;;;;;;;5.55;2.50;;;;;;;6.38;82.06;93558.53;4991977;28;20049;-64
2022/12/29 06:25:39;;;;;;;8.05;4.07;;;;;;;6.34;83.06;93558.53;4990715;28;20042;-64
2022/12/29 06:28:06;;;;;;;5.28;2.70;;;;;;;6.50;81.85;93557.25;4991870;28;20042;-64
2022/12/29 06:30:33;;;;;;;15.32;8.50;;;;;;;6.32;83.11;93558.16;5005229;28;20052;-64
2022/12/29 06:33:00;;;;;;;6.37;2.77;;;;;;;6.25;83.34;93566.34;4991831;28;20485;-65
2022/12/29 06:35:26;;;;;;;6.63;2.72;;;;;;;6.42;82.64;93570.19;4991408;28;20046;-64
2022/12/29 06:37:53;;;;;;;7.32;2.47;;;;;;;6.35;82.64;93576.41;4990751;28;20045;-64
2022/12/29 06:40:21;;;;;;;7.00;3.17;;;;;;;6.27;83.21;93568.69;4991668;28;20092;-64
2022/12/29 06:42:48;;;;;;;10.63;5.28;;;;;;;6.24;82.91;93573.00;4990938;28;20050;-64
2022/12/29 06:45:15;;;;;;;8.13;4.60;;;;;;;6.18;83.81;93553.53;4991587;28;20039;-64
2022/12/29 06:47:42;;;;;;;8.85;3.25;;;;;;;6.10;84.20;93557.47;4990723;28;20058;-64
2022/12/29 06:50:09;;;;;;;12.73;5.53;;;;;;;6.10;83.94;93557.47;5012753;28;20415;-64
2022/12/29 06:52:36;;;;;;;6.63;2.65;;;;;;;6.07;84.65;93555.53;4997365;28;20038;-65
2022/12/29 06:55:03;;;;;;;14.55;6.57;;;;;;;5.99;85.36;93554.00;4991081;28;20382;-65
2022/12/29 06:57:30;;;;;;;15.53;6.77;;;;;;;5.92;86.64;93554.78;4991190;28;20154;-65
2022/12/29 06:59:56;;;;;;;8.80;4.32;;;;;;;5.85;86.73;93554.78;4990716;28;20065;-65
2022/12/29 07:02:25;;;;;;;6.22;2.45;;;;;;;5.89;86.35;93547.38;4990642;28;20601;-64
2022/12/29 07:04:52;;;;;;;5.47;2.50;;;;;;;5.86;86.47;93552.88;4990316;28;20076;-65
2022/12/29 07:07:20;;;;;;;13.05;7.53;;;;;;;5.83;86.68;93557.13;4991114;28;20050;-65
2022/12/29 07:09:47;;;;;;;14.20;7.17;;;;;;;5.84;87.21;93550.53;4990261;28;20392;-65
2022/12/29 07:12:14;;;;;;;6.35;3.20;;;;;;;5.79;87.14;93553.66;4991107;28;20064;-65
2022/12/29 07:14:40;;;;;;;7.70;4.07;;;;;;;5.79;87.03;93551.72;4990016;28;20092;-64
2022/12/29 07:17:09;;;;;;;5.95;2.70;;;;;;;5.96;86.63;93561.03;4990958;28;20050;-65
2022/12/29 07:19:36;;;;;;;4.57;2.28;;;;;;;5.92;86.72;93559.47;4990690;28;20411;-65
2022/12/29 07:22:03;;;;;;;6.97;3.47;;;;;;;5.84;86.65;93563.38;4990484;28;20047;-65
2022/12/29 07:24:29;;;;;;;8.45;3.33;;;;;;;5.83;86.97;93570.75;4989056;28;20117;-66
2022/12/29 07:26:56;;;;;;;7.65;3.08;;;;;;;5.85;86.77;93573.09;4990539;28;20415;-65
2022/12/29 07:29:24;;;;;;;6.43;2.80;;;;;;;5.76;86.88;93577.00;4990716;28;20047;-65
2022/12/29 07:31:50;;;;;;;5.65;2.63;;;;;;;5.67;87.71;93578.56;4990368;28;20038;-65
2022/12/29 07:34:17;;;;;;;5.63;2.57;;;;;;;5.58;88.24;93587.16;4990760;28;20046;-65
2022/12/29 07:36:44;;;;;;;7.07;2.80;;;;;;;5.45;88.33;93588.72;4990102;28;20050;-65
2022/12/29 07:39:11;;;;;;;6.40;2.65;;;;;;;5.45;88.83;93584.03;4990418;28;20096;-64
2022/12/29 07:41:38;;;;;;;5.20;2.70;;;;;;;5.39;88.97;93586.41;4989735;28;20090;-62
2022/12/29 07:44:04;;;;;;;6.13;2.53;;;;;;;5.42;89.76;93592.25;4990619;28;20045;-64
2022/12/29 07:46:31;;;;;;;9.63;2.70;;;;;;;5.42;90.26;93593.00;4990230;28;20386;-64
2022/12/29 07:49:18;;;;;;;5.72;2.90;;;;;;;5.37;90.36;93591.47;4989472;28;20046;-64
2022/12/29 07:51:44;;;;;;;5.63;2.65;;;;;;;5.38;90.71;93586.78;4989984;28;20048;-64
2022/12/29 07:54:12;;;;;;;5.70;3.00;;;;;;;5.43;91.39;93583.66;4990488;28;20447;-64
2022/12/29 07:56:39;;;;;;;7.10;2.72;;;;;;;5.39;91.18;93580.16;4989839;28;20042;-63
2022/12/29 07:59:05;;;;;;;6.27;2.80;;;;;;;5.40;91.32;93585.22;4990457;28;20042;-64
2022/12/29 08:01:32;;;;;;;7.75;3.08;;;;;;;5.43;91.35;93580.16;4989929;28;20042;-65
2022/12/29 08:03:59;;;;;;;7.60;3.30;;;;;;;5.55;91.18;93579.75;4989974;28;20505;-64
2022/12/29 08:06:26;;;;;;;6.80;2.80;;;;;;;5.68;90.13;93577.41;4993884;28;20034;-64
2022/12/29 08:08:52;;;;;;;6.55;2.90;;;;;;;5.80;90.19;93583.22;4999157;28;20575;-64
2022/12/29 08:11:19;;;;;;;6.07;2.43;;;;;;;5.99;88.79;93581.25;4990385;28;20043;-64
2022/12/29 08:13:46;;;;;;;5.95;2.50;;;;;;;6.08;88.51;93591.75;4989766;28;20579;-64
2022/12/29 08:16:13;;;;;;;6.47;2.60;;;;;;;6.26;87.47;93591.66;4990593;28;20092;-64
2022/12/29 08:18:40;;;;;;;5.90;3.10;;;;;;;6.32;87.44;93598.25;4989847;28;20503;-64
2022/12/29 08:21:06;;;;;;;7.15;3.00;;;;;;;6.35;87.49;93597.47;4989985;28;20039;-64
2022/12/29 08:23:33;;;;;;;6.23;2.90;;;;;;;6.39;87.60;93612.63;4990125;28;20113;-64
2022/12/29 08:26:02;;;;;;;7.18;3.15;;;;;;;6.46;87.79;93609.09;4989802;28;20039;-64
2022/12/29 08:28:29;;;;;;;6.25;2.92;;;;;;;6.54;87.89;93607.88;4980682;28;20065;-64
2022/12/29 08:31:01;;;;;;;5.35;2.58;;;;;;;6.53;87.70;93611.78;4993790;28;20053;-64
2022/12/29 08:33:28;;;;;;;6.68;3.03;;;;;;;6.69;88.01;93614.03;4993869;28;20046;-64
2022/12/29 08:36:00;;;;;;;6.90;3.10;;;;;;;6.70;87.39;93622.97;4993395;28;20058;-64
2022/12/29 08:38:28;;;;;;;7.93;3.03;;;;;;;6.71;87.27;93619.88;5008917;28;20487;-64
2022/12/29 08:41:00;;;;;;;6.03;2.75;;;;;;;6.74;86.78;93627.25;4993290;28;20054;-64
2022/12/29 08:43:27;;;;;;;7.05;2.92;;;;;;;6.69;87.58;93635.06;4993879;28;20475;-65
2022/12/29 08:45:54;;;;;;;8.57;2.78;;;;;;;6.66;88.44;93636.66;4993231;28;20043;-65
2022/12/29 08:48:22;;;;;;;6.23;2.70;;;;;;;6.64;88.25;93639.00;4993944;28;20042;-65
2022/12/29 08:50:50;;;;;;;6.82;2.83;;;;;;;6.59;89.11;93640.16;4991521;28;20061;-64
2022/12/29 08:53:18;;;;;;;8.15;3.13;;;;;;;6.67;89.59;93634.69;4993752;28;20045;-64
2022/12/29 08:55:55;;;;;;;6.03;2.45;;;;;;;6.76;89.14;93637.75;4987101;28;20039;-64
2022/12/29 08:58:30;;;;;;;6.72;2.42;;;;;;;6.94;88.42;93641.19;4999509;28;20039;-65
2022/12/29 09:00:57;;;;;;;7.63;2.93;;;;;;;7.08;88.06;93632.09;4992777;28;20042;-65
2022/12/29 09:03:24;;;;;;;5.45;2.38;;;;;;;7.16;87.44;93635.56;4993333;28;20053;-64
2022/12/29 09:06:12;;;;;;;5.50;2.55;;;;;;;7.26;87.49;93642.91;4992532;28;20161;-64
2022/12/29 09:08:38;;;;;;;5.20;2.60;;;;;;;7.30;87.37;93638.19;4992593;28;20050;-64
2022/12/29 09:11:12;;;;;;;5.40;2.35;;;;;;;7.50;87.24;93630.25;4992932;28;20060;-65
2022/12/29 09:13:39;;;;;;;4.60;1.87;;;;;;;7.63;86.27;93630.53;4992502;28;20050;-64
2022/12/29 09:16:06;;;;;;;5.22;1.80;;;;;;;7.70;86.04;93640.63;4984630;28;20507;-65
2022/12/29 09:18:33;;;;;;;7.47;2.88;;;;;;;7.68;86.18;93638.28;4990947;28;20046;-64
2022/12/29 09:21:02;;;;;;;7.05;2.85;;;;;;;7.66;85.93;93635.19;4992636;28;20046;-65
2022/12/29 09:23:29;;;;;;;10.07;3.33;;;;;;;7.67;86.20;93646.91;5002658;28;20046;-65
2022/12/29 09:25:56;;;;;;;7.43;2.80;;;;;;;7.64;87.34;93639.50;4995262;28;20042;-64
2022/12/29 09:28:23;;;;;;;8.43;3.55;;;;;;;7.66;86.79;93631.69;4993014;28;20060;-64
2022/12/29 09:30:51;;;;;;;7.90;3.45;;;;;;;7.62;88.01;93644.59;4991773;28;20058;-65
2022/12/29 09:33:18;;;;;;;6.10;2.80;;;;;;;7.65;87.21;93635.59;4992765;28;20046;-64
2022/12/29 09:35:49;;;;;;;9.55;3.05;;;;;;;7.65;88.11;93641.84;4992825;28;20100;-64
2022/12/29 09:38:17;;;;;;;5.33;2.37;;;;;;;7.74;86.83;93635.91;5003582;28;20188;-64
2022/12/29 09:40:49;;;;;;;6.03;2.47;;;;;;;7.96;85.89;93641.94;4991387;28;20287;-64
2022/12/29 09:43:40;;;;;;;4.90;2.13;;;;;;;8.11;84.70;93632.44;4992600;28;20052;-64
2022/12/29 09:46:26;;;;;;;4.95;2.17;;;;;;;8.15;85.26;93635.13;5006557;28;20784;-64
2022/12/29 09:49:02;;;;;;;5.30;2.50;;;;;;;8.42;83.00;93637.97;4991887;28;20047;-64
2022/12/29 09:51:28;;;;;;;6.27;2.23;;;;;;;8.76;81.60;93628.97;4992672;28;20089;-64
2022/12/29 09:54:00;;;;;;;5.68;2.40;;;;;;;8.87;79.47;93634.28;4991780;28;20046;-64
2022/12/29 09:56:27;;;;;;;6.55;2.38;;;;;;;8.92;77.90;93634.59;4992314;28;20111;-65
2022/12/29 09:59:00;;;;;;;4.95;2.00;;;;;;;8.77;77.91;93630.50;4991302;28;20396;-64
2022/12/29 10:01:36;;;;;;;4.70;2.30;;;;;;;9.15;76.96;93631.13;4992123;28;20115;-65
2022/12/29 10:04:05;;;;;;;4.57;1.80;;;;;;;10.89;69.27;93626.97;4990061;28;20457;-65
2022/12/29 10:07:10;;;;;;;7.20;1.80;;;;;;;11.40;66.85;93628.16;4992300;28;20043;-65
2022/12/29 10:10:02;;;;;;;4.35;2.13;;;;;;;10.48;69.12;93625.41;4990505;28;20797;-65
2022/12/29 10:12:38;;;;;;;3.92;1.77;;;;;;;9.66;72.19;93624.91;4992247;28;20052;-65
2022/12/29 10:15:25;;;;;;;3.97;2.00;;;;;;;9.23;74.85;93625.56;4997869;28;20705;-65
2022/12/29 10:18:30;;;;;;;4.50;2.03;;;;;;;9.04;75.64;93614.13;4994688;28;20050;-64
2022/12/29 10:21:07;;;;;;;4.18;1.83;;;;;;;8.95;76.25;93617.38;4995148;28;20077;-64
2022/12/29 10:23:47;;;;;;;4.47;2.00;;;;;;;9.08;76.96;93616.81;4980678;28;20649;-64
2022/12/29 10:26:18;;;;;;;5.65;2.20;;;;;;;9.08;77.33;93614.06;4990953;28;20775;-64
2022/12/29 10:28:50;;;;;;;7.90;2.40;;;;;;;8.97;77.15;93614.19;4991260;28;20388;-64
2022/12/29 10:31:22;;;;;;;4.40;2.10;;;;;;;9.02;77.13;93607.50;4991889;28;20441;-64
2022/12/29 10:34:03;;;;;;;6.70;2.28;;;;;;;9.07;77.06;93609.78;4991016;28;20058;-64
2022/12/29 10:36:41;;;;;;;4.32;1.95;;;;;;;9.05;76.38;93606.66;4991424;28;20064;-64
2022/12/29 10:39:14;;;;;;;4.68;2.15;;;;;;;8.98;76.82;93608.31;4990756;28;20556;-64
2022/12/29 10:42:03;;;;;;;5.88;2.10;;;;;;;8.98;76.68;93611.06;4990429;28;20053;-64
2022/12/29 10:44:31;;;;;;;7.37;2.50;;;;;;;8.93;76.88;93608.81;4991311;28;20454;-64
2022/12/29 10:47:02;;;;;;;4.47;2.10;;;;;;;8.89;77.50;93610.78;4990686;28;23511;-64
2022/12/29 10:49:31;;;;;;;4.20;2.00;;;;;;;8.97;77.73;93614.19;4990883;28;20043;-64
2022/12/29 10:52:02;;;;;;;6.45;2.35;;;;;;;8.79;78.18;93623.44;4990511;28;20162;-64
2022/12/29 10:54:51;;;;;;;4.90;2.00;;;;;;;8.66;80.05;93608.75;4991254;28;20117;-64
2022/12/29 10:57:27;;;;;;;4.03;1.73;;;;;;;8.71;79.93;93611.06;4990340;28;20453;-64
2022/12/29 10:59:54;;;;;;;6.88;2.70;;;;;;;8.58;80.83;93608.06;4990173;28;20114;-64
2022/12/29 11:02:27;;;;;;;6.60;2.10;;;;;;;8.52;82.19;93603.47;4991132;28;20057;-64
2022/12/29 11:05:19;;;;;;;4.93;1.67;;;;;;;8.59;82.58;93601.44;4990216;28;20052;-65
2022/12/29 11:07:54;;;;;;;4.65;2.03;;;;;;;8.63;82.00;93606.84;4990149;28;20050;-65
2022/12/29 11:10:39;;;;;;;6.03;1.90;;;;;;;8.66;82.33;93597.06;4991021;28;20042;-65
2022/12/29 11:13:18;;;;;;;4.22;2.00;;;;;;;8.71;82.67;93593.84;4989853;28;21799;-65
2022/12/29 11:15:44;;;;;;;5.88;2.20;;;;;;;8.82;83.09;93588.25;4990195;28;20042;-64
2022/12/29 11:18:38;;;;;;;5.55;1.77;;;;;;;8.92;82.98;93590.81;4990473;28;20065;-65
2022/12/29 11:21:23;;;;;;;5.10;1.90;;;;;;;9.03;82.58;93582.44;4989525;28;20740;-65
2022/12/29 11:24:05;;;;;;;3.87;1.97;;;;;;;8.91;83.64;93583.78;4990021;28;20484;-64
2022/12/29 11:26:32;;;;;;;6.70;2.90;;;;;;;8.85;84.02;93584.66;4990669;28;20088;-62
2022/12/29 11:29:23;;;;;;;4.35;2.00;;;;;;;8.88;84.05;93586.59;4989836;28;20050;-65
2022/12/29 11:31:54;;;;;;;4.72;2.00;;;;;;;8.76;85.01;93591.44;4990067;28;20056;-65
2022/12/29 11:34:25;;;;;;;4.45;2.17;;;;;;;8.99;84.11;93581.72;4990617;28;20395;-65
2022/12/29 11:37:02;;;;;;;4.50;2.30;;;;;;;9.00;83.83;93577.81;4989901;28;20042;-65
2022/12/29 11:39:45;;;;;;;6.43;2.83;;;;;;;9.00;83.75;93584.06;4990481;28;20038;-65
2022/12/29 11:42:16;;;;;;;4.15;2.00;;;;;;;8.99;82.79;93577.03;4989678;28;20509;-65
2022/12/29 11:44:48;;;;;;;6.18;2.65;;;;;;;9.06;83.40;93576.16;4990062;28;20132;-65
2022/12/29 11:47:29;;;;;;;5.82;2.53;;;;;;;9.09;82.85;93575.31;4990425;28;20088;-65
2022/12/29 11:50:02;;;;;;;6.33;2.70;;;;;;;9.02;83.56;93574.66;4989643;28;20050;-65
2022/12/29 11:52:34;;;;;;;7.90;2.20;;;;;;;9.03;83.03;93566.03;4990486;28;20046;-65
2022/12/29 11:55:04;;;;;;;5.50;2.25;;;;;;;9.14;82.81;93560.41;5004740;28;20495;-65
2022/12/29 11:57:34;;;;;;;5.68;2.25;;;;;;;8.98;83.46;93558.28;4990358;28;20034;-65
2022/12/29 12:00:14;;;;;;;6.15;2.78;;;;;;;8.93;83.71;93566.97;4989543;28;20419;-65
2022/12/29 12:03:05;;;;;;;4.87;2.10;;;;;;;8.90;83.99;93565.06;4991278;28;20047;-65
2022/12/29 12:05:44;;;;;;;4.03;1.80;;;;;;;8.86;86.09;93569.81;4994417;28;20042;-65
2022/12/29 12:08:37;;;;;;;5.38;2.25;;;;;;;8.84;88.49;93566.72;4993329;28;20888;-65
2022/12/29 12:11:15;;;;;;;4.00;1.88;;;;;;;8.83;87.76;93557.72;4992987;28;21744;-64
2022/12/29 12:13:56;;;;;;;5.97;2.50;;;;;;;8.88;86.62;93554.53;4993428;28;20050;-64
2022/12/29 12:16:41;;;;;;;5.83;2.50;;;;;;;8.84;86.58;93542.84;4994117;28;20501;-65
2022/12/29 12:19:32;;;;;;;9.27;3.40;;;;;;;8.83;86.65;93549.50;4992009;28;21713;-65
2022/12/29 12:22:10;;;;;;;4.35;2.20;;;;;;;8.71;86.60;93553.59;4993490;28;20084;-65
2022/12/29 12:24:55;;;;;;;4.63;2.10;;;;;;;8.85;85.75;93555.34;4993746;28;20402;-65
2022/12/29 12:27:28;;;;;;;8.07;2.90;;;;;;;8.82;85.76;93555.41;5005041;28;20607;-65
2022/12/29 12:29:58;;;;;;;7.23;2.40;;;;;;;8.78;86.66;93558.19;4993330;28;20058;-65
2022/12/29 12:32:34;;;;;;;5.10;2.10;;;;;;;8.78;87.05;93552.72;4994020;28;20380;-65
2022/12/29 12:35:01;;;;;;;5.65;1.90;;;;;;;8.71;88.27;93553.59;4992965;28;20058;-65
2022/12/29 12:37:49;;;;;;;4.53;1.80;;;;;;;8.84;88.76;93550.28;4993950;28;20042;-65